Time;durP1;ratioP1;P1;durP2;ratioP2;P2;SDS_P1;SDS_P2;PMS_P1;PMS_P2;Temp;Humidity;BMP_temperature;BMP_pressure;BME280_temperature;BME280_humidity;BME280_pressure;Samples;Min_cycle;Max_cycle;Signal;HPM_P1;HPM_P2
2023/10/29 00:01:02;;;;;;;;;0.00;0.00;;;;;20.31;49.99;98629.59;5079393;27;45509;-77
2023/10/29 00:03:27;;;;;;;;;0.00;0.00;;;;;20.43;50.22;98658.28;5079728;27;45264;-72
2023/10/29 00:05:53;;;;;;;;;0.00;0.00;;;;;20.48;49.94;98651.94;5079695;27;45397;-79
2023/10/29 00:08:18;;;;;;;;;0.00;0.00;;;;;20.28;49.74;98632.38;5079804;27;46021;-80
2023/10/29 00:10:44;;;;;;;;;0.00;0.00;;;;;20.25;49.93;98625.44;5096114;27;45334;-72
2023/10/29 00:13:10;;;;;;;;;0.00;0.00;;;;;20.48;50.21;98647.50;5080174;27;45466;-73
2023/10/29 00:15:35;;;;;;;;;0.00;0.00;;;;;20.04;50.02;98600.63;5079748;27;45541;-73
2023/10/29 00:18:01;;;;;;;;;0.00;0.00;;;;;20.43;50.07;98668.91;5079247;27;45830;-72
2023/10/29 00:20:27;;;;;;;;;0.00;0.00;;;;;20.28;50.11;98637.69;5079366;27;45625;-78
2023/10/29 00:22:52;;;;;;;;;0.00;0.00;;;;;20.40;49.73;98670.81;5079239;27;45192;-91
2023/10/29 00:25:18;;;;;;;;;0.00;0.00;;;;;20.32;49.60;98655.19;5079539;27;45475;-73
2023/10/29 00:27:44;;;;;;;;;0.00;0.00;;;;;20.39;49.67;98677.91;5079505;27;45497;-72
2023/10/29 00:30:10;;;;;;;;;0.67;0.00;;;;;20.51;49.04;98683.63;5079238;27;45421;-73
2023/10/29 00:32:35;;;;;;;;;0.00;0.00;;;;;20.60;48.96;98676.19;5095082;27;45385;-73
2023/10/29 00:35:01;;;;;;;;;0.00;0.00;;;;;20.51;48.68;98649.13;5079294;27;45446;-73
2023/10/29 00:37:26;;;;;;;;;0.33;0.00;;;;;20.37;49.12;98620.53;5078933;27;45500;-73
2023/10/29 00:39:52;;;;;;;;;0.00;0.00;;;;;20.43;49.32;98645.03;5079095;27;45260;-73
2023/10/29 00:42:19;;;;;;;;;0.00;0.00;;;;;20.35;49.06;98622.38;5079263;27;45326;-73
2023/10/29 00:44:45;;;;;;;;;0.00;0.00;;;;;20.59;49.30;98669.19;5079546;28;45259;-73
2023/10/29 00:47:11;;;;;;;;;0.00;0.00;;;;;20.63;48.56;98653.97;5078692;27;46169;-93
2023/10/29 00:49:36;;;;;;;;;0.00;0.00;;;;;20.57;48.71;98630.31;5078897;27;45488;-74
2023/10/29 00:52:03;;;;;;;;;0.67;0.00;;;;;20.64;48.38;98634.47;5078778;27;45422;-73
2023/10/29 00:54:29;;;;;;;;;0.00;0.00;;;;;20.63;48.65;98640.69;5079003;27;45406;-73
2023/10/29 00:56:56;;;;;;;;;0.00;0.00;;;;;20.59;48.53;98647.06;5078545;27;45432;-74
2023/10/29 00:59:22;;;;;;;;;0.00;0.00;;;;;20.57;49.01;98644.47;5078498;27;45357;-73
2023/10/29 01:01:48;;;;;;;;;0.00;0.00;;;;;20.57;48.72;98633.84;5079025;27;45448;-74
2023/10/29 01:04:14;;;;;;;;;0.00;0.00;;;;;20.58;49.17;98643.53;5079168;27;45620;-73
2023/10/29 01:06:41;;;;;;;;;0.00;0.00;;;;;20.53;48.73;98616.34;5078968;27;46484;-74
2023/10/29 01:09:10;;;;;;;;;0.00;0.00;;;;;20.53;48.72;98619.00;5079193;27;45338;-73
2023/10/29 01:11:36;;;;;;;;;0.00;0.00;;;;;20.55;48.99;98619.78;5078694;27;45337;-73
2023/10/29 01:14:01;;;;;;;;;0.00;0.00;;;;;20.59;49.05;98613.47;5078820;27;45526;-73
2023/10/29 01:16:30;;;;;;;;;0.00;0.00;;;;;20.44;48.92;98591.03;5078363;27;46132;-76
2023/10/29 01:18:57;;;;;;;;;0.00;0.00;;;;;20.70;48.41;98617.44;5078419;27;45287;-73
2023/10/29 01:21:27;;;;;;;;;0.00;0.00;;;;;20.42;48.32;98568.19;5078453;27;45207;-73
2023/10/29 01:23:53;;;;;;;;;0.00;0.00;;;;;20.75;48.47;98634.03;5078647;27;45219;-73
2023/10/29 01:26:18;;;;;;;;;0.00;0.00;;;;;20.78;47.65;98645.38;5078407;27;45286;-74
2023/10/29 01:28:44;;;;;;;;;0.00;0.00;;;;;20.74;47.93;98633.16;5078645;27;45461;-73
2023/10/29 01:31:11;;;;;;;;;0.67;0.00;;;;;20.88;47.96;98647.66;5078500;27;45420;-73
2023/10/29 01:33:37;;;;;;;;;0.00;0.00;;;;;20.59;47.87;98600.19;5078944;27;45207;-73
2023/10/29 01:36:04;;;;;;;;;0.00;0.00;;;;;20.88;48.12;98656.47;5078343;28;45251;-74
2023/10/29 01:38:29;;;;;;;;;0.00;0.00;;;;;20.82;48.13;98639.00;5078716;27;45568;-75
2023/10/29 01:40:55;;;;;;;;;0.00;0.00;;;;;20.81;48.22;98631.09;5094264;27;45398;-73
2023/10/29 01:43:20;;;;;;;;;0.00;0.00;;;;;20.51;48.23;98549.19;5079009;27;45377;-73
2023/10/29 01:45:46;;;;;;;;;0.00;0.00;;;;;20.49;47.90;98544.91;5078647;28;46142;-93
2023/10/29 01:48:11;;;;;;;;;0.00;0.00;;;;;20.61;48.39;98565.63;5078072;28;45545;-73
2023/10/29 01:50:37;;;;;;;;;0.00;0.00;;;;;20.95;48.05;98620.78;5078159;27;45521;-73
2023/10/29 01:53:03;;;;;;;;;0.00;0.00;;;;;20.97;48.30;98626.91;5078089;27;45306;-74
2023/10/29 01:55:28;;;;;;;;;0.00;0.00;;;;;20.36;47.97;98518.91;5076529;28;47042;-73
2023/10/29 01:57:54;;;;;;;;;0.00;0.00;;;;;20.91;48.19;98602.38;5077871;27;45282;-73
2023/10/29 02:00:19;;;;;;;;;0.00;0.00;;;;;20.96;48.19;98629.59;5078035;27;45317;-73
2023/10/29 02:02:47;;;;;;;;;0.00;0.00;;;;;20.99;47.78;98619.72;5077811;27;45321;-73
2023/10/29 02:05:13;;;;;;;;;1.00;0.00;;;;;21.00;47.96;98615.28;5077572;27;45479;-74
2023/10/29 02:07:39;;;;;;;;;0.00;0.00;;;;;20.96;47.96;98598.59;5093159;27;45484;-73
2023/10/29 02:10:05;;;;;;;;;0.00;0.00;;;;;20.78;48.15;98572.88;5077643;28;45544;-73
2023/10/29 02:12:31;;;;;;;;;0.00;0.00;;;;;20.94;48.55;98612.88;5075594;28;45445;-73
2023/10/29 02:14:56;;;;;;;;;0.00;0.00;;;;;21.02;48.31;98613.41;5077353;27;46113;-74
2023/10/29 02:17:24;;;;;;;;;0.00;0.00;;;;;20.89;48.11;98586.56;5077372;27;45344;-73
2023/10/29 02:19:51;;;;;;;;;0.00;0.00;;;;;21.02;48.45;98624.03;5078143;27;45314;-73
2023/10/29 02:22:17;;;;;;;;;0.00;0.00;;;;;21.01;48.64;98611.69;5076631;28;45275;-73
2023/10/29 02:24:42;;;;;;;;;0.00;0.00;;;;;20.78;48.62;98579.03;5077401;27;46092;-73
2023/10/29 02:27:08;;;;;;;;;0.00;0.00;;;;;20.68;48.70;98539.72;5077369;27;45243;-92
2023/10/29 02:29:33;;;;;;;;;0.00;0.00;;;;;21.03;48.24;98604.53;5077710;27;45670;-73
2023/10/29 02:31:59;;;;;;;;;0.00;0.00;;;;;20.90;48.76;98572.34;5077643;27;45432;-73
2023/10/29 02:34:25;;;;;;;;;0.00;0.00;;;;;21.02;48.72;98592.16;5077415;27;45488;-73
2023/10/29 02:36:50;;;;;;;;;0.00;0.00;;;;;21.00;48.62;98588.72;5077585;27;45480;-73
2023/10/29 02:39:16;;;;;;;;;0.00;0.00;;;;;20.69;48.43;98520.19;5077468;27;45500;-73
2023/10/29 02:41:42;;;;;;;;;0.00;0.00;;;;;20.98;48.72;98554.28;5076182;28;45532;-73
2023/10/29 02:44:07;;;;;;;;;0.00;0.00;;;;;20.82;48.44;98524.91;5075756;27;45422;-73
2023/10/29 02:46:35;;;;;;;;;0.00;0.00;;;;;20.92;48.66;98543.94;5077111;27;45431;-73
2023/10/29 02:49:01;;;;;;;;;0.00;0.00;;;;;20.63;48.56;98489.50;5076038;28;45538;-73
2023/10/29 02:51:26;;;;;;;;;0.00;0.00;;;;;20.48;48.61;98459.19;5077399;28;45360;-92
2023/10/29 02:53:52;;;;;;;;;0.00;0.00;;;;;20.99;48.38;98542.75;5076134;27;46660;-73
2023/10/29 02:56:17;;;;;;;;;0.00;0.00;;;;;20.88;48.77;98522.91;5076934;28;45400;-73
2023/10/29 02:58:43;;;;;;;;;0.00;0.00;;;;;20.91;48.58;98541.34;5077140;27;45449;-73
2023/10/29 03:01:09;;;;;;;;;0.00;0.00;;;;;20.84;48.72;98516.88;5077205;28;45543;-73
2023/10/29 03:03:36;;;;;;;;;0.00;0.00;;;;;20.91;49.24;98520.09;5076859;27;45488;-73
2023/10/29 03:06:08;;;;;;;;;0.00;0.00;;;;;20.88;48.57;98531.72;5076804;27;45395;-73
2023/10/29 03:08:35;;;;;;;;;0.00;0.00;;;;;20.46;48.55;98455.72;5077251;27;45411;-73
2023/10/29 03:11:03;;;;;;;;;0.00;0.00;;;;;20.28;48.73;98420.28;5077171;28;45607;-73
2023/10/29 03:13:29;;;;;;;;;0.00;0.00;;;;;20.96;48.67;98523.44;5076728;27;45469;-73
2023/10/29 03:15:56;;;;;;;;;0.00;0.00;;;;;20.90;48.63;98521.06;5077056;27;46148;-74
2023/10/29 03:18:22;;;;;;;;;0.00;0.00;;;;;20.89;48.48;98525.50;5077194;27;45285;-73
2023/10/29 03:20:48;;;;;;;;;0.00;0.00;;;;;20.92;48.48;98535.13;5077178;27;45472;-74
2023/10/29 03:23:14;;;;;;;;;0.00;0.00;;;;;20.85;49.00;98519.47;5076584;27;45434;-73
2023/10/29 03:25:39;;;;;;;;;0.00;0.00;;;;;20.77;48.85;98526.03;5079992;27;45417;-73
2023/10/29 03:28:05;;;;;;;;;0.00;0.00;;;;;20.70;48.68;98514.84;5080276;27;45296;-74
2023/10/29 03:30:31;;;;;;;;;0.00;0.00;;;;;20.87;48.58;98548.59;5080504;28;45334;-73
2023/10/29 03:32:56;;;;;;;;;0.00;0.00;;;;;20.85;48.90;98553.97;5080115;27;46102;-73
2023/10/29 03:35:25;;;;;;;;;0.00;0.00;;;;;20.86;48.64;98563.63;5078996;28;45333;-73
2023/10/29 03:37:51;;;;;;;;;0.00;0.00;;;;;20.90;48.90;98568.84;5080299;27;45419;-74
2023/10/29 03:40:16;;;;;;;;;0.00;0.00;;;;;20.53;48.60;98493.44;5080237;27;45455;-73
2023/10/29 03:42:42;;;;;;;;;0.00;0.00;;;;;20.89;48.59;98548.50;5079685;28;45416;-73
2023/10/29 03:45:08;;;;;;;;;0.00;0.00;;;;;20.94;48.21;98547.38;5078693;27;45481;-73
2023/10/29 03:47:33;;;;;;;;;0.00;0.00;;;;;20.96;48.05;98549.97;5080197;27;45259;-73
2023/10/29 03:49:59;;;;;;;;;0.00;0.00;;;;;20.89;48.10;98532.59;5080232;27;45394;-74
2023/10/29 03:52:24;;;;;;;;;0.00;0.00;;;;;20.90;47.86;98531.66;5080285;28;46341;-73
2023/10/29 03:54:50;;;;;;;;;0.00;0.00;;;;;21.02;47.56;98536.44;5079776;27;45527;-73
2023/10/29 03:57:16;;;;;;;;;0.00;0.00;;;;;20.94;48.14;98504.91;5079850;27;45439;-89
2023/10/29 03:59:41;;;;;;;;;0.33;0.33;;;;;20.82;47.57;98481.59;5078741;28;45517;-92
2023/10/29 04:02:07;;;;;;;;;0.00;0.00;;;;;20.99;48.16;98515.31;5079838;27;45437;-74
2023/10/29 04:04:33;;;;;;;;;0.00;0.00;;;;;20.96;47.95;98512.81;5079827;27;45362;-92
2023/10/29 04:07:00;;;;;;;;;1.00;0.00;;;;;20.76;47.59;98471.25;5080720;27;45345;-73
2023/10/29 04:09:25;;;;;;;;;0.33;0.00;;;;;21.03;47.82;98533.72;5080605;27;45331;-73
2023/10/29 04:11:51;;;;;;;;;0.00;0.00;;;;;21.05;47.36;98538.97;5086480;27;46178;-74
2023/10/29 04:14:16;;;;;;;;;0.00;0.00;;;;;21.08;47.60;98529.97;5088007;27;45444;-73
2023/10/29 04:16:42;;;;;;;;;0.00;0.00;;;;;21.00;47.40;98514.41;5087651;27;45319;-73
2023/10/29 04:19:07;;;;;;;;;0.00;0.00;;;;;20.48;47.20;98442.41;5090019;27;45491;-73
2023/10/29 04:21:33;;;;;;;;;1.00;0.00;;;;;21.05;47.10;98523.88;5084153;27;46563;-73
2023/10/29 04:23:59;;;;;;;;;0.33;0.00;;;;;21.08;46.54;98520.22;5078890;27;45469;-73
2023/10/29 04:26:24;;;;;;;;;0.00;0.00;;;;;20.76;47.10;98469.44;5079017;28;45428;-73
2023/10/29 04:28:50;;;;;;;;;0.00;0.00;;;;;20.82;46.63;98468.31;5079130;28;45854;-73
2023/10/29 04:31:15;;;;;;;;;0.00;0.00;;;;;20.82;46.45;98477.13;5078592;28;46011;-73
2023/10/29 04:33:45;;;;;;;;;0.00;0.00;;;;;21.13;46.58;98534.16;5078187;27;45452;-73
2023/10/29 04:36:22;;;;;;;;;0.00;0.00;;;;;21.11;46.43;98528.06;5077785;28;45449;-73
2023/10/29 04:38:48;;;;;;;;;0.00;0.00;;;;;21.14;46.46;98535.88;5078487;27;45435;-73
2023/10/29 04:41:14;;;;;;;;;1.00;0.00;;;;;20.75;46.24;98488.97;5078201;27;46184;-73
2023/10/29 04:43:41;;;;;;;;;0.00;0.00;;;;;21.05;46.08;98549.56;5078185;27;45400;-73
2023/10/29 04:46:10;;;;;;;;;0.00;0.00;;;;;20.77;46.51;98497.72;5078015;27;45581;-73
2023/10/29 04:48:37;;;;;;;;;0.00;0.00;;;;;20.96;46.55;98529.59;5078266;27;45504;-73
2023/10/29 04:51:02;;;;;;;;;0.00;0.00;;;;;21.03;46.65;98552.28;5076172;28;46768;-72
2023/10/29 04:53:28;;;;;;;;;0.00;0.00;;;;;20.84;46.67;98525.69;5078089;27;45606;-72
2023/10/29 04:55:54;;;;;;;;;0.00;0.00;;;;;20.99;46.18;98552.47;5078211;27;45729;-75
2023/10/29 04:58:19;;;;;;;;;0.67;0.67;;;;;20.94;46.37;98546.53;5077673;27;45488;-72
2023/10/29 05:00:45;;;;;;;;;0.00;0.00;;;;;20.71;46.75;98528.94;5077777;27;45350;-74
2023/10/29 05:03:10;;;;;;;;;0.67;0.00;;;;;20.89;46.63;98553.81;5077680;27;45558;-74
2023/10/29 05:05:36;;;;;;;;;0.00;0.00;;;;;20.83;47.01;98550.53;5077109;28;45452;-73
2023/10/29 05:08:01;;;;;;;;;0.00;0.00;;;;;20.96;46.79;98556.13;5077605;27;45390;-73
2023/10/29 05:10:28;;;;;;;;;0.00;0.00;;;;;20.61;46.10;98491.34;5077652;28;45466;-73
2023/10/29 05:12:54;;;;;;;;;1.00;1.00;;;;;20.68;45.76;98491.97;5077446;27;45536;-73
2023/10/29 05:15:19;;;;;;;;;0.00;0.00;;;;;20.97;45.98;98533.09;5077265;27;45532;-73
2023/10/29 05:17:45;;;;;;;;;0.00;0.00;;;;;21.02;45.69;98531.13;5077497;27;45320;-72
2023/10/29 05:20:11;;;;;;;;;0.00;0.00;;;;;20.75;46.34;98494.28;5076227;28;45953;-73
2023/10/29 05:22:37;;;;;;;;;0.00;0.00;;;;;20.97;46.40;98530.44;5076922;27;45512;-73
2023/10/29 05:25:06;;;;;;;;;1.00;0.00;;;;;20.88;46.24;98522.91;5076748;27;45303;-73
2023/10/29 05:27:32;;;;;;;;;0.00;0.00;;;;;20.71;46.47;98495.34;5076317;27;45479;-73
2023/10/29 05:29:59;;;;;;;;;0.33;0.00;;;;;20.80;45.95;98534.72;5076905;27;45463;-73
2023/10/29 05:32:25;;;;;;;;;0.00;0.00;;;;;20.84;46.23;98538.09;5076341;27;45567;-73
2023/10/29 05:34:51;;;;;;;;;0.00;0.00;;;;;20.60;46.03;98481.69;5076548;27;45483;-73
2023/10/29 05:37:17;;;;;;;;;1.00;1.00;;;;;20.91;45.66;98536.03;5076338;28;45361;-73
2023/10/29 05:39:42;;;;;;;;;1.00;0.00;;;;;20.91;46.12;98541.34;5075286;27;45329;-72
2023/10/29 05:42:09;;;;;;;;;1.00;1.00;;;;;20.52;45.69;98483.78;5076758;27;45254;-73
2023/10/29 05:44:34;;;;;;;;;0.33;0.33;;;;;20.74;45.78;98558.88;5076865;27;45169;-74
2023/10/29 05:47:00;;;;;;;;;1.00;0.33;;;;;20.92;45.63;98574.94;5075909;27;45445;-74
2023/10/29 05:49:26;;;;;;;;;1.00;0.00;;;;;20.96;45.92;98569.41;5077396;27;45591;-73
2023/10/29 05:51:51;;;;;;;;;0.33;0.00;;;;;20.51;46.02;98487.34;5076369;27;45357;-73
2023/10/29 05:54:18;;;;;;;;;2.00;1.00;;;;;20.88;45.81;98560.94;5075400;27;45311;-73
2023/10/29 05:56:44;;;;;;;;;1.67;1.00;;;;;20.71;46.50;98556.38;5076434;27;45521;-73
2023/10/29 05:59:10;;;;;;;;;0.00;0.00;;;;;20.64;46.05;98520.41;5075677;27;45398;-73
2023/10/29 06:01:38;;;;;;;;;0.00;0.00;;;;;20.23;46.23;98439.03;5075153;27;45671;-73
2023/10/29 06:04:04;;;;;;;;;0.00;0.00;;;;;20.99;46.54;98552.47;5075900;27;45450;-74
2023/10/29 06:06:30;;;;;;;;;0.00;0.00;;;;;20.98;46.68;98550.78;5075859;27;45592;-74
2023/10/29 06:08:56;;;;;;;;;0.33;0.00;;;;;20.17;46.84;98431.31;5074555;27;45982;-88
2023/10/29 06:11:21;;;;;;;;;0.00;0.00;;;;;20.83;46.62;98541.69;5075683;27;45448;-73
2023/10/29 06:13:47;;;;;;;;;2.00;2.00;;;;;20.95;47.04;98565.03;5077997;27;45716;-91
2023/10/29 06:16:14;;;;;;;;;1.00;1.00;;;;;20.97;46.93;98575.56;5083303;27;45353;-90
2023/10/29 06:18:39;;;;;;;;;3.00;3.00;;;;;20.91;46.97;98587.34;5089327;27;45498;-91
2023/10/29 06:21:05;;;;;;;;;1.00;1.00;;;;;20.96;46.83;98581.81;5086183;27;45426;-75
2023/10/29 06:23:31;;;;;;;;;1.00;1.00;;;;;20.45;46.83;98499.06;5084430;27;45364;-92
2023/10/29 06:25:57;;;;;;;;;1.00;1.00;;;;;20.99;46.84;98590.53;5085666;27;45420;-89
2023/10/29 06:28:22;;;;;;;;;1.00;1.00;;;;;20.97;47.01;98594.16;5085241;27;46598;-91
2023/10/29 06:30:48;;;;;;;;;0.33;0.00;;;;;20.92;47.17;98585.53;5083639;27;45435;-89
2023/10/29 06:33:14;;;;;;;;;0.00;0.00;;;;;20.90;46.79;98590.91;5085195;27;45380;-90
2023/10/29 06:35:40;;;;;;;;;1.00;1.00;;;;;20.94;47.01;98616.38;5085820;27;45460;-81
2023/10/29 06:38:06;;;;;;;;;0.00;0.00;;;;;20.79;46.57;98572.81;5083627;27;46059;-92
2023/10/29 06:40:32;;;;;;;;;0.00;0.00;;;;;20.36;47.22;98487.09;5084349;27;45397;-75
2023/10/29 06:42:57;;;;;;;;;1.33;1.00;;;;;20.95;46.68;98580.09;5084017;27;45460;-73
2023/10/29 06:45:23;;;;;;;;;1.00;1.00;;;;;20.31;47.11;98465.19;5086234;27;45286;-91
2023/10/29 06:47:49;;;;;;;;;2.00;1.00;;;;;21.02;47.12;98587.72;5081239;27;45639;-89
2023/10/29 06:50:15;;;;;;;;;0.00;0.00;;;;;21.08;47.22;98580.44;5083939;27;45866;-92
2023/10/29 06:52:40;;;;;;;;;1.00;0.00;;;;;21.18;47.41;98582.59;5085679;27;45498;-92
2023/10/29 06:55:09;;;;;;;;;0.00;0.00;;;;;21.00;46.93;98544.44;5087703;27;45585;-91
2023/10/29 06:57:36;;;;;;;;;1.00;1.00;;;;;20.47;47.24;98452.13;5088812;27;45590;-91
2023/10/29 07:00:01;;;;;;;;;1.33;0.00;;;;;20.08;47.42;98361.97;5090048;27;45372;-92
2023/10/29 07:02:27;;;;;;;;;1.00;1.00;;;;;20.65;47.51;98475.25;5086829;27;45441;-74
2023/10/29 07:04:53;;;;;;;;;1.00;1.00;;;;;20.95;47.59;98532.31;5085211;27;45368;-91
2023/10/29 07:07:19;;;;;;;;;2.00;1.00;;;;;21.02;47.56;98570.94;5088336;27;45462;-92
2023/10/29 07:09:44;;;;;;;;;0.00;0.00;;;;;20.94;47.32;98563.31;5086704;27;45301;-76
2023/10/29 07:12:10;;;;;;;;;1.33;0.00;;;;;21.07;47.80;98595.50;5088431;27;45438;-90
2023/10/29 07:14:35;;;;;;;;;2.00;1.67;;;;;21.15;47.67;98617.25;5090064;27;45326;-74
2023/10/29 07:17:01;;;;;;;;;0.00;0.00;;;;;21.22;47.08;98618.69;5087192;27;45349;-75
2023/10/29 07:19:27;;;;;;;;;1.00;0.00;;;;;21.23;47.44;98632.84;5087259;27;45433;-91
2023/10/29 07:21:52;;;;;;;;;0.00;0.00;;;;;20.92;47.58;98617.41;5087398;27;45600;-85
2023/10/29 07:24:18;;;;;;;;;0.00;0.00;;;;;21.26;47.23;98684.00;5086527;27;45491;-73
2023/10/29 07:26:44;;;;;;;;;1.00;1.00;;;;;21.20;47.06;98696.72;5085997;27;46159;-90
2023/10/29 07:29:11;;;;;;;;;0.67;0.67;;;;;21.03;47.27;98662.94;5087245;27;45701;-74
2023/10/29 07:31:37;;;;;;;;;0.33;0.00;;;;;21.10;47.01;98664.38;5086039;27;45400;-91
2023/10/29 07:34:03;;;;;;;;;2.00;2.00;;;;;20.92;47.22;98636.84;5084860;27;45538;-91
2023/10/29 07:36:29;;;;;;;;;1.33;1.00;;;;;21.45;47.00;98723.13;5087475;27;45747;-73
2023/10/29 07:38:55;;;;;;;;;3.67;3.67;;;;;21.47;47.28;98720.38;5085439;27;45527;-90
2023/10/29 07:41:21;;;;;;;;;2.00;1.00;;;;;21.45;47.11;98744.38;5085602;27;45456;-73
2023/10/29 07:43:47;;;;;;;;;0.33;0.33;;;;;20.86;46.80;98614.06;5086956;27;45444;-79
2023/10/29 07:46:14;;;;;;;;;0.33;0.33;;;;;21.61;46.77;98728.63;5083142;27;45442;-90
2023/10/29 07:48:40;;;;;;;;;2.00;1.00;;;;;21.65;46.55;98743.50;5084860;27;45743;-73
2023/10/29 07:51:05;;;;;;;;;1.00;1.00;;;;;21.46;46.65;98703.56;5086122;27;45480;-76
2023/10/29 07:53:31;;;;;;;;;1.00;1.00;;;;;21.74;46.09;98744.88;5082892;27;45507;-73
2023/10/29 07:56:07;;;;;;;;;1.00;1.00;;;;;21.75;46.47;98728.84;5085965;27;46216;-88
2023/10/29 07:58:33;;;;;;;;;0.00;0.00;;;;;21.87;46.60;98755.81;5080663;27;45962;-73
2023/10/29 08:00:59;;;;;;;;;2.00;1.00;;;;;21.61;45.96;98710.88;5085476;27;45321;-75
2023/10/29 08:03:24;;;;;;;;;1.67;1.67;;;;;21.91;46.27;98768.91;5078659;27;45635;-76
2023/10/29 08:05:53;;;;;;;;;2.00;2.00;;;;;21.78;46.40;98747.31;5073618;28;46094;-76
2023/10/29 08:08:19;;;;;;;;;1.00;1.00;;;;;22.00;45.96;98768.50;5075870;27;45857;-76
2023/10/29 08:10:45;;;;;;;;;1.67;1.00;;;;;21.99;46.00;98766.75;5076291;27;45899;-83
2023/10/29 08:13:11;;;;;;;;;3.00;2.00;;;;;22.06;45.80;98770.00;5073517;27;46108;-74
2023/10/29 08:15:37;;;;;;;;;3.00;2.50;;;;;21.99;46.16;98741.97;5082939;27;46098;-84
2023/10/29 08:18:03;;;;;;;;;0.00;0.00;;;;;22.19;46.08;98749.88;5084025;27;45457;-72
2023/10/29 08:20:28;;;;;;;;;0.67;0.33;;;;;22.42;45.99;98774.56;5083563;27;45431;-73
2023/10/29 08:22:54;;;;;;;;;1.00;0.00;;;;;22.55;45.82;98772.22;5085851;27;46020;-77
2023/10/29 08:25:20;;;;;;;;;0.00;0.00;;;;;22.67;44.70;98750.34;5083787;27;45505;-78
2023/10/29 08:27:46;;;;;;;;;1.00;1.00;;;;;22.93;45.05;98758.84;5083769;27;45338;-89
2023/10/29 08:30:12;;;;;;;;;0.00;0.00;;;;;22.75;44.35;98713.56;5084724;27;45334;-90
2023/10/29 08:32:38;;;;;;;;;1.00;1.00;;;;;23.06;44.19;98756.47;5085046;27;45522;-73
2023/10/29 08:35:06;;;;;;;;;0.33;0.33;;;;;22.99;44.43;98751.41;5082841;27;45778;-78
2023/10/29 08:37:34;;;;;;;;;0.67;0.67;;;;;23.04;44.16;98769.88;5080283;27;45596;-72
2023/10/29 08:40:00;;;;;;;;;1.00;1.00;;;;;22.76;44.04;98725.94;5079818;27;45729;-83
2023/10/29 08:42:32;;;;;;;;;0.00;0.00;;;;;22.82;44.02;98746.94;5083501;27;45379;-73
2023/10/29 08:44:59;;;;;;;;;2.00;2.00;;;;;22.98;43.87;98778.16;5084643;27;46258;-72
2023/10/29 08:47:27;;;;;;;;;3.00;2.00;;;;;22.92;43.45;98775.75;5080078;27;45369;-75
2023/10/29 08:49:53;;;;;;;;;1.00;1.00;;;;;22.43;43.81;98693.84;5082861;27;45377;-73
2023/10/29 08:52:19;;;;;;;;;0.00;0.00;;;;;22.90;44.01;98766.97;5082970;27;45400;-75
2023/10/29 08:54:53;;;;;;;;;2.00;1.00;;;;;23.10;43.54;98782.00;5075785;27;45978;-73
2023/10/29 08:57:21;;;;;;;;;1.00;1.00;;;;;22.90;43.55;98751.00;5080933;27;45533;-74
2023/10/29 08:59:47;;;;;;;;;1.00;1.00;;;;;23.03;43.94;98768.13;5080301;27;45925;-73
2023/10/29 09:02:13;;;;;;;;;1.67;1.00;;;;;23.17;43.58;98794.09;5082633;27;45403;-73
2023/10/29 09:04:39;;;;;;;;;2.00;1.00;;;;;23.15;43.82;98799.47;5081422;27;46143;-74
2023/10/29 09:07:05;;;;;;;;;1.00;1.00;;;;;23.22;43.33;98803.59;5080233;27;45749;-73
2023/10/29 09:09:31;;;;;;;;;1.33;1.00;;;;;23.11;42.95;98770.44;5082227;27;45321;-78
2023/10/29 09:11:57;;;;;;;;;0.33;0.33;;;;;23.35;42.96;98797.63;5081773;27;45460;-71
2023/10/29 09:14:23;;;;;;;;;2.00;0.67;;;;;23.41;43.29;98794.66;5080141;27;46509;-72
2023/10/29 09:16:49;;;;;;;;;3.00;0.00;;;;;23.42;43.07;98791.06;5081864;27;45903;-71
2023/10/29 09:19:15;;;;;;;;;0.67;0.67;;;;;23.36;42.86;98773.59;5079907;27;45446;-72
2023/10/29 09:21:41;;;;;;;;;1.00;1.00;;;;;23.47;42.82;98781.00;5082844;27;45498;-73
2023/10/29 09:24:07;;;;;;;;;5.67;5.00;;;;;23.45;42.69;98793.56;5082322;27;46160;-71
2023/10/29 09:26:40;;;;;;;;;1.00;1.00;;;;;23.41;42.58;98792.84;5086587;27;45580;-72
2023/10/29 09:29:08;;;;;;;;;1.00;1.00;;;;;23.46;42.06;98797.97;5082605;27;45652;-71
2023/10/29 09:31:33;;;;;;;;;1.00;0.33;;;;;23.55;41.79;98785.97;5085838;27;45560;-73
2023/10/29 09:34:00;;;;;;;;;1.33;1.00;;;;;23.60;41.81;98787.44;5087338;27;45356;-75
2023/10/29 09:36:27;;;;;;;;;2.00;2.00;;;;;23.81;42.21;98780.19;5079751;27;45479;-71
2023/10/29 09:38:52;;;;;;;;;1.00;1.00;;;;;23.95;42.16;98781.25;5077020;27;45438;-71
2023/10/29 09:41:18;;;;;;;;;2.33;2.33;;;;;24.06;41.93;98778.88;5077649;27;45381;-72
2023/10/29 09:43:44;;;;;;;;;5.00;5.00;;;;;24.10;41.43;98774.25;5076985;27;46332;-71
2023/10/29 09:46:11;;;;;;;;;2.33;2.33;;;;;24.00;41.31;98736.53;5077273;27;45509;-74
2023/10/29 09:48:38;;;;;;;;;3.00;2.00;;;;;24.14;41.61;98749.97;5078810;27;45504;-73
2023/10/29 09:51:12;;;;;;;;;1.00;1.00;;;;;24.31;41.20;98788.19;5076187;27;45406;-78
2023/10/29 09:53:38;;;;;;;;;1.33;1.00;;;;;24.29;41.05;98777.63;5074014;28;45879;-71
2023/10/29 09:56:10;;;;;;;;;2.00;2.00;;;;;24.31;40.94;98772.19;5076242;28;45458;-76
2023/10/29 09:58:36;;;;;;;;;0.67;0.67;;;;;24.20;40.88;98752.31;5080819;27;45288;-73
2023/10/29 10:01:05;;;;;;;;;1.00;1.00;;;;;24.25;40.62;98772.53;5076420;27;45445;-71
2023/10/29 10:03:31;;;;;;;;;2.00;1.00;;;;;24.26;40.86;98780.47;5083279;27;46502;-71
2023/10/29 10:05:58;;;;;;;;;1.00;1.00;;;;;23.69;41.38;98679.47;5075806;27;45637;-72
2023/10/29 10:08:27;;;;;;;;;1.33;1.00;;;;;24.37;40.93;98785.19;5076143;27;45570;-86
2023/10/29 10:10:53;;;;;;;;;1.50;1.50;;;;;24.53;40.65;98793.25;5076665;27;45482;-72
2023/10/29 10:13:36;;;;;;;;;0.67;0.67;;;;;24.58;40.93;98792.06;5075511;28;45483;-72
2023/10/29 10:16:06;;;;;;;;;1.33;1.00;;;;;24.68;40.71;98789.75;5076050;27;45447;-72
2023/10/29 10:18:49;;;;;;;;;3.00;1.00;;;;;24.81;40.57;98784.59;5077053;27;45496;-72
2023/10/29 10:21:15;;;;;;;;;1.00;1.00;;;;;24.88;40.22;98793.94;5077019;27;45397;-72
2023/10/29 10:23:55;;;;;;;;;10.67;10.67;;;;;24.94;39.46;98784.72;5076268;27;45385;-74
2023/10/29 10:26:30;;;;;;;;;1.00;1.00;;;;;25.07;39.33;98792.88;5076475;27;45428;-73
2023/10/29 10:28:59;;;;;;;;;1.33;1.00;;;;;25.26;39.57;98787.38;5078267;27;45483;-72
2023/10/29 10:31:27;;;;;;;;;1.00;1.00;;;;;25.43;39.35;98800.63;5080014;27;45310;-73
2023/10/29 10:34:19;;;;;;;;;0.00;0.00;;;;;25.49;39.21;98799.41;5074963;27;46233;-74
2023/10/29 10:36:48;;;;;;;;;1.00;1.00;;;;;25.58;39.36;98797.03;5076019;27;45387;-74
2023/10/29 10:39:15;;;;;;;;;1.00;0.00;;;;;25.73;38.44;98797.94;5077668;27;45455;-78
2023/10/29 10:41:46;;;;;;;;;4.00;3.00;;;;;25.68;38.89;98794.66;5077124;28;45490;-76
2023/10/29 10:44:18;;;;;;;;;3.33;1.67;;;;;25.68;38.55;98788.47;5075640;28;45361;-77
2023/10/29 10:46:58;;;;;;;;;1.00;1.00;;;;;25.70;38.25;98784.72;5075157;28;45392;-78
2023/10/29 10:49:24;;;;;;;;;0.67;0.67;;;;;25.80;38.20;98785.03;5076253;28;45397;-77
2023/10/29 10:51:55;;;;;;;;;2.00;2.00;;;;;25.58;38.68;98748.88;5075994;27;45298;-73
2023/10/29 10:54:22;;;;;;;;;1.00;1.00;;;;;25.84;38.62;98777.69;5075974;27;45986;-72
2023/10/29 10:56:50;;;;;;;;;1.00;1.00;;;;;25.67;37.97;98778.72;5075108;27;45409;-74
2023/10/29 10:59:16;;;;;;;;;0.33;0.00;;;;;25.57;38.27;98781.94;5075521;27;45491;-73
2023/10/29 11:01:41;;;;;;;;;1.00;1.00;;;;;25.42;38.60;98785.53;5076167;27;45656;-74
2023/10/29 11:04:09;;;;;;;;;2.00;2.00;;;;;25.30;38.50;98786.25;5075855;27;45910;-73
2023/10/29 11:06:39;;;;;;;;;1.00;1.00;;;;;25.20;38.71;98780.56;5075771;28;45559;-73
2023/10/29 11:09:12;;;;;;;;;2.00;2.00;;;;;25.13;38.94;98785.41;5075507;28;45322;-73
2023/10/29 11:11:56;;;;;;;;;1.00;1.00;;;;;24.84;39.15;98765.69;5076390;27;45398;-72
2023/10/29 11:14:23;;;;;;;;;1.00;1.00;;;;;24.86;38.89;98779.81;5075515;27;45442;-73
2023/10/29 11:16:53;;;;;;;;;3.00;2.67;;;;;24.60;39.58;98762.63;5075263;27;45327;-73
2023/10/29 11:19:44;;;;;;;;;1.00;1.00;;;;;24.76;40.03;98782.16;5075192;27;45553;-74
2023/10/29 11:22:21;;;;;;;;;2.00;2.00;;;;;24.77;39.53;98770.53;5075552;27;45387;-73
2023/10/29 11:25:14;;;;;;;;;0.00;0.00;;;;;24.75;40.12;98772.44;5075775;28;45497;-74
2023/10/29 11:27:46;;;;;;;;;1.00;1.00;;;;;24.60;40.03;98774.16;5075906;27;45659;-73
2023/10/29 11:30:16;;;;;;;;;0.00;0.00;;;;;24.61;40.04;98778.56;5074648;27;45776;-86
2023/10/29 11:32:43;;;;;;;;;2.33;1.33;;;;;24.57;40.08;98760.97;5075176;27;45514;-73